createdAt,value
2022-11-09T00:01:20.933Z,1.20
2022-11-09T00:03:47.921Z,1.20
2022-11-09T00:06:14.356Z,1.40
2022-11-09T00:08:41.156Z,1.13
2022-11-09T00:11:08.794Z,1.33
2022-11-09T00:13:35.983Z,1.10
2022-11-09T00:16:02.589Z,1.30
2022-11-09T00:18:29.655Z,1.33
2022-11-09T00:20:56.244Z,1.23
2022-11-09T00:23:23.009Z,1.27
2022-11-09T00:25:49.748Z,1.20
2022-11-09T00:28:16.149Z,1.20
2022-11-09T00:30:42.648Z,1.23
2022-11-09T00:33:11.114Z,1.20
2022-11-09T00:35:38.883Z,1.27
2022-11-09T00:38:05.432Z,1.38
2022-11-09T00:40:31.887Z,1.10
2022-11-09T00:42:58.336Z,1.20
2022-11-09T00:45:24.809Z,1.20
2022-11-09T00:47:51.368Z,1.30
2022-11-09T00:50:17.825Z,1.20
2022-11-09T00:52:44.768Z,1.23
2022-11-09T00:55:11.612Z,1.45
2022-11-09T00:57:38.248Z,1.27
2022-11-09T01:00:05.338Z,1.67
2022-11-09T01:02:31.867Z,1.27
2022-11-09T01:04:59.989Z,1.30
2022-11-09T01:07:26.562Z,1.65
2022-11-09T01:09:53.040Z,1.10
2022-11-09T01:12:19.590Z,1.30
2022-11-09T01:14:46.048Z,1.33
2022-11-09T01:17:12.519Z,1.83
2022-11-09T01:19:38.941Z,1.40
2022-11-09T01:22:05.414Z,1.17
2022-11-09T01:24:31.875Z,1.23
2022-11-09T01:26:58.324Z,1.30
2022-11-09T01:29:24.807Z,1.20
2022-11-09T01:31:51.371Z,1.45
2022-11-09T01:34:34.205Z,1.32
2022-11-09T01:37:02.052Z,1.20
2022-11-09T01:39:29.865Z,1.23
2022-11-09T01:41:56.395Z,1.50
2022-11-09T01:44:22.890Z,1.40
2022-11-09T01:46:51.869Z,1.30
2022-11-09T01:49:31.660Z,1.15
2022-11-09T01:52:16.232Z,1.20
2022-11-09T01:54:45.780Z,1.10
2022-11-09T01:57:17.010Z,1.48
2022-11-09T01:59:47.108Z,1.15
2022-11-09T02:02:13.700Z,1.20
2022-11-09T02:04:44.845Z,1.10
2022-11-09T02:07:11.426Z,1.02
2022-11-09T02:09:43.818Z,1.00
2022-11-09T02:12:10.477Z,1.17
2022-11-09T02:14:37.877Z,1.13
2022-11-09T02:17:04.924Z,1.10
2022-11-09T02:19:31.528Z,1.50
2022-11-09T02:21:58.068Z,1.00
2022-11-09T02:24:24.723Z,1.10
2022-11-09T02:26:52.233Z,1.17
2022-11-09T02:29:20.732Z,1.30
2022-11-09T02:31:49.346Z,1.20
2022-11-09T02:34:17.620Z,1.48
2022-11-09T02:36:44.516Z,1.45
2022-11-09T02:39:18.059Z,1.00
2022-11-09T02:41:47.994Z,0.95
2022-11-09T02:44:15.651Z,1.10
2022-11-09T02:46:42.164Z,1.40
2022-11-09T02:49:08.825Z,1.33
2022-11-09T02:51:35.977Z,1.30
2022-11-09T02:54:02.695Z,1.40
2022-11-09T02:56:29.424Z,1.35
2022-11-09T02:58:56.012Z,1.38
2022-11-09T03:01:22.567Z,1.25
2022-11-09T03:03:49.331Z,1.40
2022-11-09T03:06:16.084Z,1.27
2022-11-09T03:08:44.907Z,1.40
2022-11-09T03:11:11.583Z,0.95
2022-11-09T03:13:38.348Z,1.48
2022-11-09T03:16:08.364Z,1.10
2022-11-09T03:18:38.198Z,0.93
2022-11-09T03:21:05.376Z,1.13
2022-11-09T03:23:32.603Z,1.65
2022-11-09T03:26:00.060Z,1.00
2022-11-09T03:28:29.557Z,1.25
2022-11-09T03:30:57.057Z,1.67
2022-11-09T03:33:23.803Z,1.40
2022-11-09T03:35:51.406Z,1.40
2022-11-09T03:38:18.883Z,1.30
2022-11-09T03:40:50.485Z,1.40
2022-11-09T03:43:17.182Z,1.40
2022-11-09T03:45:44.133Z,1.42
2022-11-09T03:48:10.535Z,1.30
2022-11-09T03:50:40.475Z,1.42
2022-11-09T03:53:10.523Z,1.50
2022-11-09T03:55:37.706Z,1.10
2022-11-09T03:58:04.792Z,1.23
2022-11-09T04:00:31.522Z,1.30
2022-11-09T04:02:59.029Z,1.25
2022-11-09T04:05:25.859Z,1.27
2022-11-09T04:07:53.509Z,1.40
2022-11-09T04:10:20.365Z,1.48
2022-11-09T04:12:46.784Z,1.38
2022-11-09T04:15:13.735Z,1.30
2022-11-09T04:17:40.463Z,1.35
2022-11-09T04:20:07.767Z,1.30
2022-11-09T04:22:34.241Z,1.58
2022-11-09T04:25:00.699Z,1.88
2022-11-09T04:27:27.205Z,1.60
2022-11-09T04:29:53.641Z,1.02
2022-11-09T04:32:20.083Z,1.20
2022-11-09T04:34:46.503Z,1.45
2022-11-09T04:37:14.038Z,1.10
2022-11-09T04:39:40.469Z,1.33
2022-11-09T04:42:06.982Z,1.30
2022-11-09T04:44:33.409Z,1.00
2022-11-09T04:46:59.898Z,1.70
2022-11-09T04:49:26.322Z,1.65
2022-11-09T04:51:52.864Z,1.40
2022-11-09T04:54:19.331Z,1.40
2022-11-09T04:56:45.801Z,1.33
2022-11-09T04:59:12.368Z,1.30
2022-11-09T05:01:38.775Z,1.38
2022-11-09T05:04:05.294Z,1.20
2022-11-09T05:06:31.812Z,1.10
2022-11-09T05:08:59.471Z,1.00
2022-11-09T05:11:25.980Z,1.08
2022-11-09T05:13:52.754Z,1.35
2022-11-09T05:16:19.719Z,1.58
2022-11-09T05:18:46.459Z,1.52
2022-11-09T05:21:13.391Z,1.48
2022-11-09T05:23:58.232Z,1.83
2022-11-09T05:26:31.052Z,1.58
2022-11-09T05:28:59.130Z,1.52
2022-11-09T05:31:26.101Z,3.25
2022-11-09T05:33:52.926Z,1.80
2022-11-09T05:36:19.783Z,1.92
2022-11-09T05:38:46.478Z,1.55
2022-11-09T05:41:13.117Z,1.52
2022-11-09T05:43:39.648Z,1.90
2022-11-09T05:46:06.859Z,2.03
2022-11-09T05:48:33.465Z,2.03
2022-11-09T05:51:03.797Z,1.73
2022-11-09T05:53:30.812Z,1.70
2022-11-09T05:56:01.348Z,1.80
2022-11-09T05:58:27.883Z,2.00
2022-11-09T06:00:54.373Z,1.83
2022-11-09T06:03:22.025Z,2.00
2022-11-09T06:05:48.726Z,1.48
2022-11-09T06:08:15.259Z,1.40
2022-11-09T06:10:44.894Z,1.50
2022-11-09T06:13:11.373Z,1.50
2022-11-09T06:15:37.814Z,1.50
2022-11-09T06:18:04.413Z,1.70
2022-11-09T06:20:32.394Z,1.70
2022-11-09T06:23:03.040Z,1.55
2022-11-09T06:25:31.612Z,1.50
2022-11-09T06:27:58.365Z,1.33
2022-11-09T06:30:24.872Z,1.40
2022-11-09T06:32:51.383Z,1.27
2022-11-09T06:35:17.920Z,1.00
2022-11-09T06:37:44.457Z,1.10
2022-11-09T06:40:12.617Z,1.20
2022-11-09T06:42:39.173Z,0.90
2022-11-09T06:45:05.870Z,1.27
2022-11-09T06:47:32.362Z,1.10
2022-11-09T06:49:58.806Z,1.10
2022-11-09T06:52:25.989Z,1.10
2022-11-09T06:54:52.429Z,1.13
2022-11-09T06:57:18.897Z,1.20
2022-11-09T06:59:45.346Z,1.15
2022-11-09T07:02:14.870Z,1.20
2022-11-09T07:04:41.315Z,1.40
2022-11-09T07:07:07.845Z,1.20
2022-11-09T07:09:34.456Z,1.10
2022-11-09T07:12:04.151Z,1.25
2022-11-09T07:14:30.732Z,1.40
2022-11-09T07:16:59.897Z,1.10
2022-11-09T07:19:26.468Z,1.33
2022-11-09T07:21:53.180Z,1.10
2022-11-09T07:24:20.218Z,1.20
2022-11-09T07:26:47.587Z,1.10
2022-11-09T07:29:15.231Z,1.05
2022-11-09T07:31:41.895Z,1.00
2022-11-09T07:34:08.849Z,1.02
2022-11-09T07:36:36.937Z,1.17
2022-11-09T07:39:03.782Z,1.42
2022-11-09T07:41:37.785Z,1.63
2022-11-09T07:44:04.563Z,1.30
2022-11-09T07:46:32.511Z,1.60
2022-11-09T07:48:59.051Z,1.00
2022-11-09T07:51:25.643Z,1.58
2022-11-09T07:53:52.214Z,1.52
2022-11-09T07:56:18.835Z,1.80
2022-11-09T07:58:45.423Z,1.30
2022-11-09T08:01:12.075Z,1.27
2022-11-09T08:03:40.598Z,1.50
2022-11-09T08:06:11.066Z,1.40
2022-11-09T08:08:41.264Z,1.30
2022-11-09T08:11:07.754Z,1.83
2022-11-09T08:13:34.978Z,1.52
2022-11-09T08:16:02.943Z,1.10
2022-11-09T08:18:29.853Z,1.40
2022-11-09T08:20:57.991Z,1.98
2022-11-09T08:23:27.134Z,1.35
2022-11-09T08:25:53.684Z,1.60
2022-11-09T08:28:22.920Z,1.50
2022-11-09T08:30:57.746Z,1.20
2022-11-09T08:33:25.008Z,2.22
2022-11-09T08:35:53.338Z,1.90
2022-11-09T08:38:20.509Z,1.88
2022-11-09T08:40:48.328Z,1.58
2022-11-09T08:43:14.904Z,1.55
2022-11-09T08:45:43.649Z,1.38
2022-11-09T08:48:10.578Z,2.10
2022-11-09T08:50:37.330Z,2.20
2022-11-09T08:53:04.329Z,1.40
2022-11-09T08:55:31.306Z,1.38
2022-11-09T08:58:02.161Z,1.50
2022-11-09T09:00:29.061Z,1.33
2022-11-09T09:02:58.543Z,1.65
2022-11-09T09:05:27.747Z,1.90
2022-11-09T09:07:55.420Z,1.42
2022-11-09T09:10:21.861Z,1.65
2022-11-09T09:12:48.530Z,1.98
2022-11-09T09:15:15.020Z,1.70
2022-11-09T09:17:41.449Z,1.75
2022-11-09T09:20:09.641Z,1.77
2022-11-09T09:22:36.532Z,1.65
2022-11-09T09:25:03.936Z,1.67
2022-11-09T09:27:32.758Z,1.70
2022-11-09T09:29:59.370Z,1.73
2022-11-09T09:32:30.024Z,1.45
2022-11-09T09:34:57.259Z,1.30
2022-11-09T09:37:26.632Z,1.02
2022-11-09T09:39:54.416Z,1.33
2022-11-09T09:42:24.079Z,1.02
2022-11-09T09:44:53.661Z,1.40
2022-11-09T09:47:23.822Z,1.30
2022-11-09T09:50:03.987Z,1.27
2022-11-09T09:53:04.721Z,1.25
2022-11-09T09:55:40.970Z,1.27
2022-11-09T09:58:13.986Z,1.13
2022-11-09T10:00:44.219Z,1.33
2022-11-09T10:03:17.472Z,1.33
2022-11-09T10:05:45.553Z,1.60
2022-11-09T10:08:30.707Z,1.33
2022-11-09T10:11:00.331Z,1.23
2022-11-09T10:13:39.230Z,1.20
2022-11-09T10:16:24.548Z,1.45
2022-11-09T10:18:54.057Z,1.95
2022-11-09T10:21:36.093Z,1.92
2022-11-09T10:24:05.827Z,1.80
2022-11-09T10:26:46.769Z,1.38
2022-11-09T10:29:24.215Z,1.77
2022-11-09T10:31:54.925Z,1.40
2022-11-09T10:34:29.864Z,1.27
2022-11-09T10:37:15.288Z,1.67
2022-11-09T10:40:11.242Z,1.63
2022-11-09T10:43:00.823Z,1.77
2022-11-09T10:45:57.090Z,1.45
2022-11-09T10:48:43.964Z,1.30
2022-11-09T10:51:55.457Z,1.17
2022-11-09T10:54:40.698Z,1.40
2022-11-09T10:57:25.858Z,1.48
2022-11-09T11:00:20.796Z,1.70
2022-11-09T11:03:16.064Z,1.85
2022-11-09T11:06:02.812Z,1.50
2022-11-09T11:08:49.202Z,1.42
2022-11-09T11:11:37.051Z,1.55
2022-11-09T11:14:41.871Z,1.75
2022-11-09T11:17:30.823Z,1.40
2022-11-09T11:20:35.373Z,1.42
2022-11-09T11:23:21.959Z,1.20
2022-11-09T11:26:16.269Z,1.25
2022-11-09T11:29:04.416Z,1.23
2022-11-09T11:31:49.551Z,1.55
2022-11-09T11:34:58.522Z,1.20
2022-11-09T11:38:00.582Z,1.50
2022-11-09T11:41:13.740Z,1.38
2022-11-09T11:43:58.400Z,1.20
2022-11-09T11:46:48.361Z,1.25
2022-11-09T11:49:38.672Z,1.20
2022-11-09T11:52:23.470Z,1.40
2022-11-09T11:55:27.391Z,1.63
2022-11-09T11:58:18.289Z,1.55
2022-11-09T12:01:09.267Z,1.50
2022-11-09T12:04:12.820Z,1.35
2022-11-09T12:07:06.765Z,1.65
2022-11-09T12:09:59.456Z,1.63
2022-11-09T12:12:54.599Z,1.30
2022-11-09T12:15:54.959Z,1.27
2022-11-09T12:19:01.021Z,1.67
2022-11-09T12:22:04.742Z,1.67
2022-11-09T12:25:10.636Z,1.42
2022-11-09T12:28:15.239Z,1.83
2022-11-09T12:31:19.444Z,1.67
2022-11-09T12:34:09.348Z,1.50
2022-11-09T12:37:05.120Z,1.50
2022-11-09T12:39:53.377Z,2.00
2022-11-09T12:42:47.409Z,1.73
2022-11-09T12:45:32.715Z,1.35
2022-11-09T12:48:29.028Z,1.80
2022-11-09T12:51:17.146Z,1.85
2022-11-09T12:54:11.146Z,1.73
2022-11-09T12:57:01.442Z,1.65
2022-11-09T12:59:53.699Z,1.70
2022-11-09T13:02:42.728Z,2.17
2022-11-09T13:05:37.005Z,1.40
2022-11-09T13:08:29.777Z,1.85
2022-11-09T13:11:19.753Z,1.73
2022-11-09T13:14:30.503Z,2.00
2022-11-09T13:17:27.619Z,1.90
2022-11-09T13:20:53.240Z,2.20
2022-11-09T13:24:01.563Z,1.90
2022-11-09T13:26:50.644Z,1.83
2022-11-09T13:29:41.628Z,2.05
2022-11-09T13:32:26.756Z,1.65
2022-11-09T13:35:31.007Z,1.27
2022-11-09T13:38:24.772Z,2.55
2022-11-09T13:41:28.397Z,1.88
2022-11-09T13:44:28.122Z,2.17
2022-11-09T13:47:27.802Z,2.10
2022-11-09T13:50:21.942Z,1.73
2022-11-09T13:53:34.023Z,1.90
2022-11-09T13:56:33.438Z,1.80
2022-11-09T13:59:52.425Z,1.55
2022-11-09T14:02:37.549Z,1.90
2022-11-09T14:05:27.319Z,1.92
2022-11-09T14:08:28.197Z,2.15
2022-11-09T14:11:24.358Z,2.10
2022-11-09T14:14:16.673Z,2.08
2022-11-09T14:17:20.392Z,1.90
2022-11-09T14:20:22.336Z,1.77
2022-11-09T14:23:17.591Z,1.60
2022-11-09T14:26:10.145Z,1.90
2022-11-09T14:28:55.619Z,1.35
2022-11-09T14:31:45.399Z,1.38
2022-11-09T14:34:35.924Z,1.50
2022-11-09T14:37:23.951Z,1.45
2022-11-09T14:40:20.986Z,2.33
2022-11-09T14:43:15.511Z,1.50
2022-11-09T14:46:04.846Z,1.80
2022-11-09T14:48:51.848Z,1.20
2022-11-09T14:51:38.555Z,1.83
2022-11-09T14:54:25.665Z,1.45
2022-11-09T14:57:17.207Z,1.40
2022-11-09T15:00:03.058Z,1.58
2022-11-09T15:02:49.298Z,1.40
2022-11-09T15:05:41.670Z,1.65
2022-11-09T15:08:26.910Z,1.77
2022-11-09T15:11:12.177Z,1.63
2022-11-09T15:13:57.769Z,1.60
2022-11-09T15:16:43.026Z,1.48
2022-11-09T15:19:37.766Z,1.33
2022-11-09T15:22:41.799Z,1.50
2022-11-09T15:25:51.792Z,1.77
2022-11-09T15:28:44.317Z,1.90
2022-11-09T15:31:31.404Z,1.70
2022-11-09T15:34:31.995Z,1.42
2022-11-09T15:37:28.482Z,1.65
2022-11-09T15:40:14.799Z,1.85
2022-11-09T15:42:59.810Z,1.98
2022-11-09T15:45:44.766Z,1.77
2022-11-09T15:48:29.781Z,3.17
2022-11-09T15:51:15.428Z,1.63
2022-11-09T15:54:00.157Z,2.20
2022-11-09T15:56:45.700Z,2.13
2022-11-09T15:59:32.635Z,1.90
2022-11-09T16:02:19.038Z,1.75
2022-11-09T16:05:04.421Z,2.22
2022-11-09T16:07:50.379Z,1.58
2022-11-09T16:10:38.848Z,2.00
2022-11-09T16:13:23.725Z,1.88
2022-11-09T16:16:09.205Z,1.70
2022-11-09T16:18:54.790Z,2.08
2022-11-09T16:21:41.773Z,1.92
2022-11-09T16:24:26.584Z,1.70
2022-11-09T16:27:17.090Z,1.50
2022-11-09T16:30:08.745Z,1.77
2022-11-09T16:32:54.131Z,1.55
2022-11-09T16:35:39.637Z,1.75
2022-11-09T16:38:24.653Z,1.25
2022-11-09T16:41:11.252Z,1.60
2022-11-09T16:43:56.447Z,1.80
2022-11-09T16:46:43.265Z,1.63
2022-11-09T16:49:28.432Z,1.98
2022-11-09T16:52:13.439Z,1.90
2022-11-09T16:54:58.505Z,1.52
2022-11-09T16:57:46.203Z,1.42
2022-11-09T17:00:49.086Z,1.75
2022-11-09T17:03:37.617Z,1.88
2022-11-09T17:06:22.438Z,1.70
2022-11-09T17:09:07.350Z,1.40
2022-11-09T17:11:52.985Z,1.90
2022-11-09T17:14:38.230Z,2.60
2022-11-09T17:17:23.986Z,2.50
2022-11-09T17:20:10.184Z,2.28
2022-11-09T17:22:55.563Z,2.28
2022-11-09T17:25:41.097Z,2.28
2022-11-09T17:28:26.445Z,2.00
2022-11-09T17:31:15.782Z,2.30
2022-11-09T17:34:01.513Z,2.25
2022-11-09T17:37:03.773Z,2.22
2022-11-09T17:39:49.566Z,2.20
2022-11-09T17:42:35.767Z,1.73
2022-11-09T17:45:21.006Z,1.73
2022-11-09T17:48:06.887Z,2.17
2022-11-09T17:50:52.187Z,2.00
2022-11-09T17:53:37.832Z,1.98
2022-11-09T17:56:24.112Z,2.10
2022-11-09T17:59:09.296Z,1.90
2022-11-09T18:01:58.752Z,2.00
2022-11-09T18:04:43.989Z,1.83
2022-11-09T18:07:31.133Z,2.05
2022-11-09T18:10:17.303Z,2.10
2022-11-09T18:13:03.931Z,1.85
2022-11-09T18:15:51.330Z,1.40
2022-11-09T18:18:36.731Z,1.65
2022-11-09T18:21:23.419Z,1.70
2022-11-09T18:24:10.642Z,2.00
2022-11-09T18:26:55.801Z,1.70
2022-11-09T18:29:41.518Z,1.80
2022-11-09T18:32:26.536Z,2.15
2022-11-09T18:35:11.846Z,1.90
2022-11-09T18:37:56.849Z,1.65
2022-11-09T18:40:42.014Z,1.40
2022-11-09T18:43:27.105Z,1.67
2022-11-09T18:46:13.836Z,1.80
2022-11-09T18:48:59.541Z,2.10
2022-11-09T18:51:44.954Z,2.67
2022-11-09T18:54:31.581Z,3.10
2022-11-09T18:57:19.859Z,2.80
2022-11-09T19:00:08.066Z,2.20
2022-11-09T19:02:53.061Z,2.65
2022-11-09T19:05:44.117Z,2.67
2022-11-09T19:08:48.584Z,2.33
2022-11-09T19:11:33.585Z,2.30
2022-11-09T19:14:18.712Z,2.65
2022-11-09T19:17:03.775Z,2.38
2022-11-09T19:19:48.654Z,2.25
2022-11-09T19:22:35.124Z,2.10
2022-11-09T19:25:22.753Z,2.40
2022-11-09T19:28:07.708Z,2.45
2022-11-09T19:30:52.629Z,1.60
2022-11-09T19:33:37.726Z,2.10
2022-11-09T19:36:30.717Z,2.63
2022-11-09T19:39:16.713Z,2.33
2022-11-09T19:42:01.961Z,1.83
2022-11-09T19:44:53.610Z,2.35
2022-11-09T19:47:41.860Z,2.30
2022-11-09T19:50:27.054Z,2.08
2022-11-09T19:53:14.741Z,2.30
2022-11-09T19:56:11.844Z,2.22
2022-11-09T19:58:58.256Z,2.30
2022-11-09T20:01:44.850Z,2.38
2022-11-09T20:04:34.119Z,2.28
2022-11-09T20:07:21.564Z,2.90
2022-11-09T20:10:08.944Z,2.05
2022-11-09T20:12:55.486Z,2.13
2022-11-09T20:15:40.381Z,2.65
2022-11-09T20:18:25.523Z,2.42
2022-11-09T20:21:10.543Z,2.80
2022-11-09T20:23:55.745Z,2.60
2022-11-09T20:26:43.547Z,2.53
2022-11-09T20:29:31.361Z,2.95
2022-11-09T20:32:21.331Z,2.60
2022-11-09T20:35:07.390Z,2.17
2022-11-09T20:37:52.766Z,2.42
2022-11-09T20:40:37.937Z,2.35
2022-11-09T20:43:23.345Z,2.42
2022-11-09T20:46:17.181Z,1.52
2022-11-09T20:49:03.901Z,2.58
2022-11-09T20:51:49.611Z,2.00
2022-11-09T20:54:35.309Z,2.40
2022-11-09T20:57:20.248Z,2.35
2022-11-09T21:00:05.543Z,2.42
2022-11-09T21:02:50.300Z,2.40
2022-11-09T21:05:35.257Z,2.50
2022-11-09T21:08:20.712Z,2.50
2022-11-09T21:11:07.691Z,2.50
2022-11-09T21:13:53.492Z,2.33
2022-11-09T21:16:39.703Z,2.00
2022-11-09T21:19:24.947Z,2.10
2022-11-09T21:22:10.112Z,2.08
2022-11-09T21:25:14.279Z,2.10
2022-11-09T21:28:35.135Z,2.30
2022-11-09T21:31:20.281Z,2.25
2022-11-09T21:34:05.419Z,2.58
2022-11-09T21:36:50.244Z,2.67
2022-11-09T21:39:35.830Z,2.40
2022-11-09T21:42:23.435Z,2.35
2022-11-09T21:45:08.653Z,2.38
2022-11-09T21:47:54.527Z,2.60
2022-11-09T21:50:39.955Z,3.03
2022-11-09T21:53:25.294Z,2.15
2022-11-09T21:56:10.506Z,2.33
2022-11-09T21:58:55.789Z,2.88
2022-11-09T22:01:41.064Z,2.47
2022-11-09T22:04:26.413Z,2.50
2022-11-09T22:07:11.514Z,2.60
2022-11-09T22:10:09.790Z,2.17
2022-11-09T22:13:14.474Z,2.50
2022-11-09T22:16:09.956Z,2.10
2022-11-09T22:19:13.999Z,2.38
2022-11-09T22:21:59.054Z,2.38
2022-11-09T22:24:44.645Z,2.03
2022-11-09T22:27:31.475Z,2.83
2022-11-09T22:30:16.770Z,2.83
2022-11-09T22:33:02.009Z,2.20
2022-11-09T22:35:53.247Z,2.65
2022-11-09T22:38:38.368Z,2.13
2022-11-09T22:41:26.598Z,2.33
2022-11-09T22:44:14.147Z,2.53
2022-11-09T22:46:59.578Z,2.10
2022-11-09T22:49:45.823Z,2.45
2022-11-09T22:52:31.076Z,2.05
2022-11-09T22:55:18.322Z,2.03
2022-11-09T22:58:03.110Z,2.40
2022-11-09T23:00:48.001Z,2.55
2022-11-09T23:03:35.947Z,2.40
2022-11-09T23:06:21.769Z,2.72
2022-11-09T23:09:08.268Z,2.17
2022-11-09T23:11:53.265Z,2.13
2022-11-09T23:14:57.255Z,2.60
2022-11-09T23:18:00.802Z,2.13
2022-11-09T23:20:45.808Z,2.58
2022-11-09T23:23:33.294Z,2.65
2022-11-09T23:26:19.218Z,3.05
2022-11-09T23:29:04.344Z,3.22
2022-11-09T23:31:49.233Z,2.85
2022-11-09T23:34:34.037Z,2.22
2022-11-09T23:37:20.207Z,2.53
2022-11-09T23:40:05.651Z,2.72
2022-11-09T23:42:50.755Z,2.70
2022-11-09T23:45:38.783Z,2.63
2022-11-09T23:48:23.868Z,2.42
2022-11-09T23:51:09.294Z,2.70
2022-11-09T23:53:54.153Z,2.15
2022-11-09T23:56:39.226Z,2.70
2022-11-09T23:59:24.641Z,2.60
